Latest Weather Observations for Evans Head

IDN60801

Issued at 10:32 am EDT Wednesday 20 February 2019 (issued every 10 minutes, with the page automatically refreshed every 10 minutes)

About weather observations | Map of weather stations | Latest weather observations for NSW | Other Formats
Station Details ID: 058212 Name: EVANS HEAD RAAF BOMBING RANGE AWS Lat: -29.18 Lon: 153.40 Height: 62.5 m
Data from the previous 72 hours. | See also: Recent months at Evans Head
Date/Time
EDT
Temp
°C
App
Temp
°C
Dew
Point
°C
Rel
Hum
%
Delta-T
°C
Wind Press
QNH
hPa
Press
MSL
hPa
Rain since
9am
mm
Dir  Spd
km/h
Gust
km/h
Spd
kts
Gust
kts
20/10:30am 28.5 29.0 20.0 60 5.6 SE 17 22 9 12 1010.1 1009.8 0.0
20/10:00am 28.3 28.8 20.1 61 5.4 SSE 17 22 9 12 1010.2 1009.9 0.0
20/09:30am 28.3 29.3 20.3 62 5.3 SE 15 20 8 11 1010.1 1009.8 0.0
20/09:00am 27.0 29.9 21.7 73 3.6 S 9 15 5 8 1009.9 1009.6 0.0
20/08:30am 25.1 28.5 22.0 83 2.1 SSW 7 13 4 7 1009.8 1009.5 0.0
20/08:00am 23.8 27.0 21.7 88 1.4 SSW 7 11 4 6 1009.6 1009.3 0.0
20/07:30am 22.6 25.2 21.2 92 0.9 SW 9 13 5 7 1009.4 1009.1 0.0
20/07:00am 22.1 24.2 20.9 93 0.8 SW 11 13 6 7 1009.1 1008.8 0.0
20/06:30am 22.2 24.6 20.8 92 0.9 SW 9 11 5 6 1008.8 1008.5 0.0
20/06:00am 22.8 26.5 20.7 88 1.4 S 2 6 1 3 1008.5 1008.2 0.0
20/05:30am 23.0 27.2 20.9 88 1.4 CALM 0 0 0 0 1008.3 1008.0 0.0
20/05:00am 23.3 26.4 21.0 87 1.5 NE 6 9 3 5 1008.0 1007.7 0.0
20/04:30am 23.3 25.8 21.0 87 1.5 E 9 13 5 7 1007.8 1007.5 0.0
20/04:00am 23.6 25.5 21.3 87 1.5 E 13 17 7 9 1007.9 1007.6 0.0
20/03:30am 23.5 25.0 21.2 87 1.5 E 15 19 8 10 1008.0 1007.7 0.0
20/03:00am 23.9 25.2 21.6 87 1.5 E 17 22 9 12 1008.2 1007.9 0.0
20/02:30am 24.0 25.3 21.7 87 1.5 ENE 17 24 9 13 1008.1 1007.8 0.0
20/02:00am 23.9 25.4 22.0 89 1.3 ENE 17 22 9 12 1008.1 1007.8 0.0
20/01:30am 23.5 25.7 21.9 91 1.1 E 13 19 7 10 1008.5 1008.2 0.0
20/01:00am 23.3 25.7 21.6 90 1.1 ENE 11 13 6 7 1008.5 1008.2 0.0
20/12:30am 23.1 25.7 21.2 89 1.2 NE 9 13 5 7 1008.4 1008.1 0.0
20/12:00am 22.9 25.3 20.8 88 1.4 N 9 13 5 7 1008.1 1007.8 0.0
 
Date/Time
EDT
Temp
°C
App
Temp
°C
Dew
Point
°C
Rel
Hum
%
Delta-T
°C
Wind Press
QNH
hPa
Press
MSL
hPa
Rain since
9am
mm
Dir  Spd
km/h
Gust
km/h
Spd
kts
Gust
kts
19/11:30pm 23.1 25.2 21.0 88 1.4 N 11 17 6 9 1007.9 1007.6 0.0
19/11:00pm 23.2 25.3 20.9 87 1.5 N 11 17 6 9 1008.0 1007.7 0.0
19/10:30pm 23.2 25.2 20.7 86 1.6 N 11 15 6 8 1007.8 1007.5 0.0
19/10:00pm 23.5 25.1 20.8 85 1.8 N 13 20 7 11 1007.7 1007.4 0.0
19/09:30pm 23.6 24.8 20.7 84 1.9 N 15 19 8 10 1007.4 1007.1 0.0
19/09:00pm 24.0 25.3 20.9 83 2.0 N 15 22 8 12 1007.2 1006.9 0.0
19/08:30pm 24.2 24.7 20.9 82 2.2 N 19 28 10 15 1006.8 1006.5 0.0
19/08:00pm 24.3 24.6 20.8 81 2.3 N 20 32 11 17 1006.4 1006.1 0.0
19/07:30pm 24.7 24.6 20.8 79 2.6 N 22 33 12 18 1006.2 1005.9 0.0
19/07:00pm 25.2 25.1 20.7 76 3.0 NNE 22 33 12 18 1005.7 1005.4 0.0
19/06:30pm 26.0 26.2 20.6 72 3.5 NNE 20 32 11 17 1005.4 1005.1 0.0
19/06:00pm 26.9 27.0 20.3 67 4.3 N 20 32 11 17 1005.0 1004.7 0.0
19/05:30pm 27.9 28.2 20.7 65 4.8 N 20 32 11 17 1004.8 1004.5 0.0
19/05:00pm 27.7 27.0 20.3 64 4.9 NNE 24 41 13 22 1004.8 1004.5 0.0
19/04:30pm 29.6 30.2 21.3 61 5.6 NNE 20 32 11 17 1005.0 1004.7 0.0
19/04:00pm 30.8 31.4 21.3 57 6.4 N 20 37 11 20 1005.3 1005.0 0.0
19/03:30pm 30.9 30.8 19.9 52 7.3 N 20 33 11 18 1005.6 1005.3 0.0
19/03:00pm 30.1 30.0 19.5 53 7.0 NNE 19 32 10 17 1005.9 1005.6 0.0
19/02:30pm 30.2 30.3 20.4 55 6.5 NNE 20 32 11 17 1006.4 1006.1 0.0
19/02:00pm 29.2 27.9 19.8 57 6.2 NE 26 39 14 21 1006.6 1006.3 0.0
19/01:30pm 28.8 28.1 20.3 60 5.6 NE 24 35 13 19 1007.2 1006.9 0.0
19/01:00pm 29.7 28.9 20.0 56 6.4 NE 24 35 13 19 1007.4 1007.1 0.0
19/12:30pm 30.5 30.1 18.9 50 7.5 NNE 19 30 10 16 1007.6 1007.3 0.0
19/12:00pm 32.2 32.1 19.5 47 8.4 NNE 19 32 10 17 1007.8 1007.5 0.0
19/11:30am 28.9 28.0 17.7 50 7.1 NE 19 28 10 15 1008.3 1008.0 0.0
19/11:00am 29.4 29.2 17.6 49 7.5 ENE 15 24 8 13 1009.0 1008.7 0.0
19/10:30am 30.2 31.1 17.6 46 8.0 NW 9 17 5 9 1009.0 1008.7 0.0
19/10:00am 28.9 29.4 17.4 49 7.3 NW 11 19 6 10 1009.2 1008.9 0.0
19/09:30am 27.7 28.1 18.1 56 6.1 NW 13 17 7 9 1009.2 1008.9 0.0
19/09:00am 26.0 28.0 19.2 66 4.4 WNW 7 13 4 7 1009.1 1008.8 0.0
19/08:30am 23.7 25.5 18.8 74 3.1 NNW 7 11 4 6 1008.9 1008.6 0.0
19/08:00am 21.2 22.9 18.6 85 1.6 NNW 7 9 4 5 1008.9 1008.6 0.0
19/07:30am 19.8 20.8 17.8 88 1.2 NW 9 11 5 6 1008.7 1008.4 0.0
19/07:00am 19.0 20.0 17.8 93 0.7 NW 9 13 5 7 1008.7 1008.4 0.0
19/06:30am 18.3 19.0 17.0 92 0.8 NW 9 11 5 6 1008.5 1008.2 0.0
19/06:00am 18.6 19.0 17.3 92 0.8 NW 11 15 6 8 1008.4 1008.1 0.0
19/05:30am 18.7 19.4 17.0 90 1.0 NW 9 11 5 6 1008.5 1008.2 0.0
19/05:00am 18.9 19.6 17.0 89 1.2 NW 9 11 5 6 1008.5 1008.2 0.0
19/04:30am 19.3 20.2 17.6 90 1.0 NNW 9 11 5 6 1008.7 1008.4 0.0
19/04:00am 19.4 20.3 17.5 89 1.2 NW 9 11 5 6 1009.0 1008.7 0.0
19/03:30am 19.6 21.0 17.7 89 1.2 NW 7 9 4 5 1009.3 1009.0 0.0
19/03:00am 19.8 20.9 17.9 89 1.2 NW 9 9 5 5 1009.5 1009.2 0.0
19/02:30am 19.9 20.9 17.7 87 1.4 NNW 9 11 5 6 1009.6 1009.3 0.0
19/02:00am 20.1 21.2 17.9 87 1.4 NNW 9 11 5 6 1009.9 1009.6 0.0
19/01:30am 20.3 21.3 17.7 85 1.6 NNW 9 9 5 5 1010.2 1009.9 0.0
19/01:00am 20.6 21.8 18.2 86 1.5 NNW 9 11 5 6 1010.6 1010.3 0.0
19/12:30am 20.9 22.0 18.1 84 1.7 NNW 9 11 5 6 1010.9 1010.6 0.0
19/12:00am 21.4 22.7 18.4 83 1.9 NNW 9 11 5 6 1011.1 1010.8 0.0
 
Date/Time
EDT
Temp
°C
App
Temp
°C
Dew
Point
°C
Rel
Hum
%
Delta-T
°C
Wind Press
QNH
hPa
Press
MSL
hPa
Rain since
9am
mm
Dir  Spd
km/h
Gust
km/h
Spd
kts
Gust
kts
18/11:30pm 21.7 22.9 18.3 81 2.1 NNW 9 11 5 6 1011.0 1010.7 0.0
18/11:00pm 22.1 23.0 18.5 80 2.3 N 11 13 6 7 1011.1 1010.8 0.0
18/10:30pm 22.4 23.1 18.8 80 2.3 N 13 17 7 9 1011.0 1010.7 0.0
18/10:00pm 22.5 23.5 18.7 79 2.4 N 11 15 6 8 1011.0 1010.7 0.0
18/09:30pm 22.6 23.5 18.4 77 2.6 N 11 15 6 8 1011.1 1010.8 0.0
18/09:00pm 22.8 23.6 18.1 75 2.9 NNE 11 17 6 9 1010.9 1010.6 0.0
18/08:30pm 23.2 24.4 18.3 74 3.1 NNE 9 15 5 8 1010.6 1010.3 0.0
18/08:00pm 23.6 24.2 18.5 73 3.2 NNE 13 24 7 13 1010.2 1009.9 0.0
18/07:30pm 24.2 24.0 18.6 71 3.6 NE 17 22 9 12 1009.9 1009.6 0.0
18/07:00pm 24.8 24.7 18.7 69 3.9 NE 17 24 9 13 1009.7 1009.4 0.0
18/06:30pm 25.5 24.9 18.9 67 4.2 ENE 20 28 11 15 1009.5 1009.2 0.0
18/06:00pm 26.3 25.8 18.7 63 4.9 ENE 19 28 10 15 1009.5 1009.2 0.0
18/05:30pm 27.0 26.3 18.3 59 5.5 ENE 19 32 10 17 1009.4 1009.1 0.0
18/05:00pm 27.4 26.9 18.7 59 5.6 ENE 19 28 10 15 1009.5 1009.2 0.0
18/04:30pm 27.6 26.3 17.2 53 6.5 E 20 28 11 15 1009.8 1009.5 0.0
18/04:00pm 28.3 27.0 17.2 51 7.0 E 20 28 11 15 1009.9 1009.6 0.0
18/03:30pm 28.6 27.4 17.5 51 7.0 E 20 28 11 15 1010.2 1009.9 0.0
18/03:00pm 28.3 27.5 18.4 55 6.4 E 20 28 11 15 1010.5 1010.2 0.0
18/02:30pm 28.6 27.7 18.1 53 6.7 E 20 24 11 13 1011.0 1010.7 0.0
18/02:00pm 28.8 28.4 19.4 56 6.1 E 20 28 11 15 1011.4 1011.1 0.0
18/01:30pm 29.0 28.7 19.6 57 6.1 E 20 26 11 14 1011.6 1011.3 0.0
18/01:00pm 28.5 28.2 19.2 57 6.0 E 19 28 10 15 1011.8 1011.5 0.0
18/12:30pm 29.9 29.8 19.9 55 6.6 ESE 20 26 11 14 1012.2 1011.9 0.0
18/12:00pm 28.7 28.1 18.5 54 6.6 ESE 19 24 10 13 1012.3 1012.0 0.0
18/11:30am 28.4 28.2 18.5 55 6.4 ESE 17 22 9 12 1012.7 1012.4 0.0
18/11:00am 28.3 28.3 18.1 54 6.5 SE 15 20 8 11 1012.9 1012.6 0.0
18/10:30am 28.6 29.9 19.2 56 6.1 ESE 11 17 6 9 1013.0 1012.7 0.0
18/10:00am 25.9 26.5 17.8 61 5.1 SE 11 13 6 7 1013.1 1012.8 0.0
18/09:30am 26.0 27.1 17.9 61 5.1 SE 9 13 5 7 1012.9 1012.6 0.0
18/09:00am 25.9 27.3 18.6 64 4.7 SSE 9 13 5 7 1013.1 1012.8 0.0
18/08:30am 22.3 23.4 17.9 76 2.7 SSW 9 13 5 7 1013.0 1012.7 0.0
18/08:00am 21.7 22.3 17.7 78 2.5 SSW 11 15 6 8 1012.7 1012.4 0.0
18/07:30am 21.0 21.4 17.2 79 2.3 SW 11 15 6 8 1012.4 1012.1 0.0
18/07:00am 20.2 20.2 17.2 83 1.8 SW 13 15 7 8 1012.1 1011.8 0.0
18/06:30am 19.4 19.3 17.0 86 1.5 SW 13 15 7 8 1012.1 1011.8 0.0
18/06:00am 19.4 18.9 17.0 86 1.5 SW 15 17 8 9 1011.9 1011.6 0.0
18/05:30am 19.5 19.5 17.1 86 1.5 SW 13 17 7 9 1011.9 1011.6 0.0
18/05:00am 19.6 19.5 17.0 85 1.6 SW 13 15 7 8 1011.9 1011.6 0.0
18/04:30am 19.8 19.7 17.0 84 1.7 SSW 13 17 7 9 1012.1 1011.8 0.0
18/04:00am 19.9 19.9 17.1 84 1.7 SW 13 15 7 8 1012.2 1011.9 0.0
18/03:30am 20.1 20.1 17.1 83 1.8 SSW 13 17 7 9 1012.4 1012.1 0.0
18/03:00am 20.2 20.2 17.2 83 1.8 SW 13 15 7 8 1012.6 1012.3 0.0
18/02:30am 20.8 21.6 17.2 80 2.2 SW 9 13 5 7 1012.8 1012.5 0.0
18/02:00am 21.4 22.6 17.4 78 2.5 SW 7 9 4 5 1013.0 1012.7 0.0
18/01:30am 22.2 24.2 17.8 76 2.7 E 4 7 2 4 1013.4 1013.0 0.0
18/01:00am 22.5 24.5 17.8 75 2.9 N 4 7 2 4 1013.6 1013.2 0.0
18/12:30am 22.6 24.5 17.7 74 3.0 NE 4 9 2 5 1013.9 1013.5 0.0
18/12:00am 23.1 24.9 18.2 74 3.1 ENE 6 7 3 4 1014.1 1013.7 0.0
 
Date/Time
EDT
Temp
°C
App
Temp
°C
Dew
Point
°C
Rel
Hum
%
Delta-T
°C
Wind Press
QNH
hPa
Press
MSL
hPa
Rain since
9am
mm
Dir  Spd
km/h
Gust
km/h
Spd
kts
Gust
kts
17/11:30pm 23.0 24.4 17.9 73 3.2 NE 7 9 4 5 1014.1 1013.7 0.0
17/11:00pm 23.0 24.1 17.9 73 3.2 NE 9 13 5 7 1014.2 1013.8 0.0
17/10:30pm 23.2 23.8 17.7 71 3.4 ENE 11 17 6 9 1014.3 1014.0 0.0
17/10:00pm 23.3 23.6 18.0 72 3.3 ENE 13 17 7 9 1014.1 1013.7 0.0
17/09:30pm 23.2 23.0 17.7 71 3.4 ENE 15 22 8 12 1013.9 1013.5 0.0
17/09:00pm 23.2 23.3 17.4 70 3.6 ENE 13 19 7 10 1013.7 1013.3 0.0
17/08:30pm 23.5 23.3 17.7 70 3.6 ENE 15 20 8 11 1013.5 1013.1 0.0
17/08:00pm 23.6 23.4 17.6 69 3.7 ENE 15 20 8 11 1013.0 1012.7 0.0
17/07:30pm 23.9 23.4 17.9 69 3.8 E 17 24 9 13 1012.8 1012.5 0.0
17/07:00pm 24.5 23.7 18.0 67 4.1 E 19 26 10 14 1012.5 1012.2 0.0
17/06:30pm 25.1 23.7 17.1 61 5.0 E 20 28 11 15 1012.4 1012.1 0.0
17/06:00pm 25.6 24.3 17.3 60 5.2 E 20 28 11 15 1012.2 1011.9 0.0
17/05:30pm 26.1 25.0 17.7 60 5.3 E 20 28 11 15 1012.1 1011.8 0.0
17/05:00pm 26.5 25.0 16.7 55 6.1 E 20 28 11 15 1012.2 1011.9 0.0
17/04:30pm 27.2 25.8 17.1 54 6.3 E 20 28 11 15 1012.3 1012.0 0.0
17/04:00pm 28.0 26.9 17.8 54 6.5 E 20 28 11 15 1012.5 1012.2 0.0
17/03:30pm 28.3 26.9 16.9 50 7.1 ESE 20 26 11 14 1012.9 1012.6 0.0
17/03:00pm 29.1 28.1 17.6 50 7.3 ESE 19 26 10 14 1013.4 1013.0 0.0
17/02:30pm 29.0 27.8 16.2 46 8.0 ESE 17 26 9 14 1013.8 1013.4 0.0
17/02:00pm 27.7 26.4 15.7 48 7.4 ESE 17 24 9 13 1014.0 1013.6 0.0
17/01:30pm 27.1 25.9 16.1 51 6.8 ESE 17 24 9 13 1014.5 1014.2 0.0
17/01:00pm 29.3 28.9 17.2 48 7.6 SE 15 20 8 11 1014.7 1014.4 0.0
17/12:30pm 29.1 28.6 17.0 48 7.6 SE 15 20 8 11 1015.1 1014.8 0.0
17/12:00pm 28.5 28.3 16.7 48 7.4 ESE 13 20 7 11 1015.4 1015.1 0.0
17/11:30am 27.9 27.4 15.9 48 7.4 SE 13 19 7 10 1015.8 1015.5 0.0
17/11:00am 27.8 27.2 16.7 50 6.9 SE 15 22 8 12 1016.0 1015.7 0.0

Other formats

Comma delimited format used in spreadsheet applications
http://www.bom.gov.au/fwo/IDN60801/IDN60801.94598.axf

JavaScript Object Notation format (JSON) in row-major order
http://www.bom.gov.au/fwo/IDN60801/IDN60801.94598.json

Data quality

Most of these data are generated automatically and are frequently updated. Quality checks on data are not normally performed. It is possible for incorrect values to appear. Refer to information at About Latest Weather Observations and please check the disclaimer before using these data.